createdAt,value
2023-10-02T00:09:39.936Z,5.82
2023-10-02T00:11:38.142Z,5.93
2023-10-02T00:13:11.897Z,5.45
2023-10-02T00:14:44.394Z,6.15
2023-10-02T00:16:20.209Z,5.80
2023-10-02T00:17:52.370Z,5.53
2023-10-02T00:19:28.997Z,5.40
2023-10-02T00:21:18.933Z,5.10
2023-10-02T00:22:52.330Z,5.60
2023-10-02T00:24:29.013Z,5.15
2023-10-02T00:26:05.541Z,5.35
2023-10-02T00:27:40.740Z,5.70
2023-10-02T00:29:13.550Z,5.43
2023-10-02T00:30:46.713Z,5.57
2023-10-02T00:32:21.936Z,5.53
2023-10-02T00:33:54.007Z,5.97
2023-10-02T00:35:26.472Z,5.82
2023-10-02T00:37:13.628Z,4.97
2023-10-02T00:38:45.796Z,5.15
2023-10-02T00:40:25.307Z,5.18
2023-10-02T00:42:16.403Z,5.72
2023-10-02T00:45:44.080Z,5.30
2023-10-02T00:47:16.712Z,5.65
2023-10-02T00:48:48.985Z,5.22
2023-10-02T00:50:22.902Z,5.47
2023-10-02T00:52:02.667Z,5.35
2023-10-02T00:53:50.165Z,5.03
2023-10-02T00:55:27.329Z,5.57
2023-10-02T00:56:59.340Z,4.95
2023-10-02T00:58:31.858Z,5.10
2023-10-02T01:00:08.352Z,5.07
2023-10-02T01:01:40.434Z,5.00
2023-10-02T01:03:19.161Z,5.05
2023-10-02T01:04:51.628Z,4.97
2023-10-02T01:06:23.692Z,5.00
2023-10-02T01:08:45.250Z,5.47
2023-10-02T01:10:20.383Z,5.43
2023-10-02T01:11:52.501Z,5.30
2023-10-02T01:13:33.692Z,5.72
2023-10-02T01:15:12.799Z,5.28
2023-10-02T01:16:52.640Z,5.07
2023-10-02T01:18:29.561Z,4.90
2023-10-02T01:20:03.069Z,4.85
2023-10-02T01:21:37.396Z,4.78
2023-10-02T01:23:13.614Z,4.82
2023-10-02T01:25:04.028Z,5.38
2023-10-02T01:26:42.133Z,4.82
2023-10-02T01:28:15.688Z,4.85
2023-10-02T01:30:07.796Z,4.60
2023-10-02T01:31:44.137Z,5.10
2023-10-02T01:33:19.304Z,4.97
2023-10-02T01:34:51.447Z,4.68
2023-10-02T01:36:23.513Z,5.25
2023-10-02T01:38:00.084Z,4.90
2023-10-02T01:39:32.939Z,5.38
2023-10-02T01:41:06.629Z,4.80
2023-10-02T01:42:39.676Z,5.10
2023-10-02T01:44:12.336Z,4.82
2023-10-02T01:45:46.034Z,4.72
2023-10-02T01:47:19.796Z,5.32
2023-10-02T01:48:54.495Z,5.22
2023-10-02T01:50:26.544Z,5.13
2023-10-02T01:52:13.381Z,4.57
2023-10-02T01:53:47.554Z,4.50
2023-10-02T01:55:31.378Z,5.03
2023-10-02T01:57:06.392Z,4.97
2023-10-02T01:58:42.461Z,4.53
2023-10-02T02:00:17.685Z,4.68
2023-10-02T02:01:55.008Z,4.65
2023-10-02T02:03:30.190Z,5.03
2023-10-02T02:05:05.730Z,5.00
2023-10-02T02:06:53.297Z,4.10
2023-10-02T02:08:25.620Z,4.85
2023-10-02T02:10:03.455Z,4.55
2023-10-02T02:11:36.440Z,4.75
2023-10-02T02:20:12.613Z,4.65
2023-10-02T02:21:45.441Z,4.70
2023-10-02T02:23:19.609Z,4.78
2023-10-02T02:24:56.286Z,4.80
2023-10-02T02:26:31.805Z,4.93
2023-10-02T02:44:37.646Z,4.70
2023-10-02T02:46:18.872Z,5.22
2023-10-02T02:49:30.847Z,5.07
2023-10-02T02:51:16.594Z,4.78
2023-10-02T03:17:10.455Z,4.55
2023-10-02T03:18:45.590Z,5.05
2023-10-02T03:20:27.973Z,4.78
2023-10-02T03:22:03.747Z,4.85
2023-10-02T03:23:35.794Z,4.63
2023-10-02T03:25:27.544Z,5.57
2023-10-02T03:27:01.702Z,4.88
2023-10-02T03:28:33.957Z,5.15
2023-10-02T03:30:07.220Z,5.15
2023-10-02T03:31:45.796Z,5.85
2023-10-02T03:33:21.797Z,4.63
2023-10-02T03:35:04.168Z,4.90
2023-10-02T03:36:40.294Z,4.95
2023-10-02T03:38:15.651Z,4.72
2023-10-02T03:39:55.328Z,4.80
2023-10-02T03:41:46.242Z,4.97
2023-10-02T03:43:35.931Z,5.05
2023-10-02T03:45:10.535Z,5.22
2023-10-02T03:46:43.664Z,5.60
2023-10-02T03:48:16.669Z,4.80
2023-10-02T03:49:49.144Z,5.03
2023-10-02T03:51:37.781Z,5.33
2023-10-02T03:53:30.417Z,5.85
2023-10-02T03:55:16.456Z,5.22
2023-10-02T03:56:56.776Z,5.03
2023-10-02T03:58:40.128Z,5.25
2023-10-02T04:00:29.510Z,5.38
2023-10-02T04:03:34.448Z,4.93
2023-10-02T04:05:07.095Z,5.30
2023-10-02T04:06:39.540Z,5.78
2023-10-02T04:08:22.220Z,5.20
2023-10-02T04:09:56.737Z,4.95
2023-10-02T04:11:28.872Z,4.85
2023-10-02T04:13:02.058Z,4.80
2023-10-02T04:14:35.192Z,5.22
2023-10-02T04:16:26.111Z,5.25
2023-10-02T04:17:58.830Z,5.13
2023-10-02T04:19:31.151Z,5.07
2023-10-02T04:21:11.066Z,5.10
2023-10-02T04:22:43.273Z,5.45
2023-10-02T04:24:16.092Z,5.50
2023-10-02T04:25:48.273Z,5.35
2023-10-02T04:27:53.724Z,5.38
2023-10-02T04:29:25.981Z,5.10
2023-10-02T04:31:07.453Z,5.32
2023-10-02T04:32:51.128Z,5.68
2023-10-02T04:34:23.257Z,5.43
2023-10-02T04:57:37.340Z,5.38
2023-10-02T04:59:11.039Z,5.57
2023-10-02T05:01:03.229Z,5.85
2023-10-02T05:17:49.579Z,5.10
2023-10-02T05:19:41.706Z,5.38
2023-10-02T05:21:18.452Z,5.03
2023-10-02T05:23:00.596Z,5.45
2023-10-02T05:24:33.538Z,5.40
2023-10-02T05:26:06.453Z,5.18
2023-10-02T05:27:39.845Z,5.53
2023-10-02T05:30:52.510Z,5.88
2023-10-02T05:32:30.818Z,5.43
2023-10-02T05:34:25.883Z,5.80
2023-10-02T05:35:58.630Z,5.63
2023-10-02T05:37:33.737Z,5.53
2023-10-02T05:39:26.180Z,5.10
2023-10-02T05:41:00.433Z,5.88
2023-10-02T05:42:38.117Z,5.88
2023-10-02T05:44:15.333Z,5.80
2023-10-02T05:45:47.378Z,5.60
2023-10-02T05:47:19.622Z,5.15
2023-10-02T05:49:02.833Z,5.35
2023-10-02T05:50:36.492Z,5.30
2023-10-02T05:53:55.181Z,5.28
2023-10-02T05:55:27.387Z,5.47
2023-10-02T05:57:15.588Z,5.50
2023-10-02T05:58:51.034Z,5.70
2023-10-02T06:00:23.199Z,5.68
2023-10-02T06:01:55.365Z,5.72
2023-10-02T06:03:30.545Z,5.70
2023-10-02T06:05:13.770Z,6.05
2023-10-02T06:06:49.588Z,5.90
2023-10-02T06:08:25.181Z,4.97
2023-10-02T06:10:00.857Z,5.50
2023-10-02T06:25:21.217Z,4.70
2023-10-02T06:26:59.646Z,4.68
2023-10-02T06:28:32.229Z,4.72
2023-10-02T06:30:04.570Z,4.82
2023-10-02T07:45:36.203Z,4.57
2023-10-02T08:05:10.940Z,4.93
2023-10-02T08:24:59.724Z,4.30
2023-10-02T08:26:40.072Z,4.13
2023-10-02T08:28:24.949Z,4.38
2023-10-02T08:29:57.069Z,4.28
2023-10-02T08:31:33.923Z,4.03
2023-10-02T08:33:08.865Z,4.50
2023-10-02T08:34:54.837Z,4.18
2023-10-02T08:36:29.921Z,4.50
2023-10-02T08:38:02.252Z,4.00
2023-10-02T08:39:35.591Z,5.93
2023-10-02T08:44:24.407Z,4.20
2023-10-02T08:45:57.292Z,4.20
2023-10-02T08:47:29.781Z,4.40
2023-10-02T08:49:05.449Z,4.55
2023-10-02T08:50:39.516Z,3.83
2023-10-02T08:52:12.472Z,3.90
2023-10-02T08:53:46.791Z,4.28
2023-10-02T08:55:47.422Z,3.92
2023-10-02T08:57:20.298Z,3.97
2023-10-02T08:59:15.953Z,4.35
2023-10-02T09:01:22.347Z,4.50
2023-10-02T09:03:14.871Z,4.45
2023-10-02T09:04:53.756Z,4.05
2023-10-02T09:06:37.291Z,4.30
2023-10-02T09:08:09.563Z,4.25
2023-10-02T09:09:56.685Z,3.80
2023-10-02T09:11:35.759Z,4.20
2023-10-02T09:13:19.134Z,4.32
2023-10-02T09:14:53.746Z,4.25
2023-10-02T09:16:31.170Z,4.35
2023-10-02T09:18:21.667Z,4.07
2023-10-02T09:20:05.004Z,4.25
2023-10-02T09:21:40.822Z,3.78
2023-10-02T09:23:14.456Z,4.00
2023-10-02T09:25:10.882Z,4.25
2023-10-02T09:26:44.795Z,4.10
2023-10-02T09:28:17.499Z,3.60
2023-10-02T09:29:51.375Z,3.60
2023-10-02T09:31:26.277Z,3.38
2023-10-02T09:33:03.595Z,4.38
2023-10-02T09:35:07.472Z,3.58
2023-10-02T09:37:42.818Z,4.18
2023-10-02T09:38:48.413Z,4.50
2023-10-02T09:40:20.814Z,3.97
2023-10-02T09:42:09.543Z,3.60
2023-10-02T09:43:43.106Z,4.68
2023-10-02T09:46:51.001Z,4.32
2023-10-02T09:48:50.909Z,3.50
2023-10-02T09:50:28.399Z,3.72
2023-10-02T09:52:12.731Z,3.50
2023-10-02T09:54:06.497Z,4.10
2023-10-02T09:55:49.290Z,3.60
2023-10-02T09:57:27.270Z,4.22
2023-10-02T09:59:17.783Z,4.97
2023-10-02T10:01:36.121Z,4.55
2023-10-02T10:03:24.465Z,4.35
2023-10-02T10:05:14.120Z,4.28
2023-10-02T10:07:04.223Z,4.18
2023-10-02T10:09:17.472Z,4.00
2023-10-02T10:10:51.422Z,4.07
2023-10-02T10:12:55.972Z,4.10
2023-10-02T10:14:41.660Z,4.13
2023-10-02T10:16:20.616Z,3.60
2023-10-02T10:17:53.506Z,3.55
2023-10-02T10:19:27.888Z,3.90
2023-10-02T10:21:58.246Z,3.60
2023-10-02T10:23:36.151Z,4.13
2023-10-02T10:25:34.892Z,3.97
2023-10-02T10:27:09.290Z,3.47
2023-10-02T10:28:59.433Z,3.97
2023-10-02T10:30:36.649Z,3.90
2023-10-02T10:32:19.849Z,3.35
2023-10-02T10:33:52.061Z,4.10
2023-10-02T10:35:35.127Z,3.35
2023-10-02T10:37:49.082Z,4.40
2023-10-02T10:39:53.489Z,4.10
2023-10-02T10:41:37.041Z,3.72
2023-10-02T10:43:14.365Z,3.90
2023-10-02T10:44:53.774Z,4.28
2023-10-02T10:46:29.440Z,4.07
2023-10-02T10:48:01.768Z,3.92
2023-10-02T10:49:55.612Z,3.97
2023-10-02T10:51:35.595Z,3.50
2023-10-02T10:53:26.381Z,4.07
2023-10-02T10:56:41.861Z,4.00
2023-10-02T10:58:14.035Z,4.03
2023-10-02T10:59:47.098Z,4.00
2023-10-02T11:01:19.385Z,4.38
2023-10-02T11:03:10.356Z,4.00
2023-10-02T11:04:49.824Z,4.57
2023-10-02T11:06:26.571Z,4.20
2023-10-02T11:08:00.778Z,3.92
2023-10-02T11:09:33.983Z,4.10
2023-10-02T11:12:57.734Z,4.00
2023-10-02T11:14:37.405Z,4.45
2023-10-02T11:16:10.120Z,4.50
2023-10-02T11:17:44.675Z,3.70
2023-10-02T11:19:25.547Z,4.03
2023-10-02T11:21:01.693Z,3.80
2023-10-02T11:22:49.840Z,4.25
2023-10-02T11:24:23.069Z,3.90
2023-10-02T11:27:30.834Z,4.10
2023-10-02T11:29:22.267Z,3.70
2023-10-02T11:31:13.726Z,3.55
2023-10-02T11:32:52.201Z,3.45
2023-10-02T11:34:32.966Z,4.03
2023-10-02T11:36:12.912Z,4.35
2023-10-02T11:37:49.208Z,4.25
2023-10-02T11:39:21.448Z,4.65
2023-10-02T11:40:54.401Z,4.20
2023-10-02T11:42:26.820Z,4.03
2023-10-02T11:43:59.010Z,4.50
2023-10-02T11:45:31.397Z,4.57
2023-10-02T11:47:03.631Z,4.10
2023-10-02T11:48:36.131Z,3.72
2023-10-02T11:50:08.719Z,4.93
2023-10-02T11:51:41.620Z,4.63
2023-10-02T11:53:13.959Z,4.57
2023-10-02T11:54:46.225Z,5.32
2023-10-02T11:56:22.050Z,4.70
2023-10-02T11:57:54.240Z,4.55
2023-10-02T11:59:26.460Z,4.55
2023-10-02T12:00:59.029Z,4.82
2023-10-02T12:02:31.340Z,5.10
2023-10-02T12:04:06.455Z,4.53
2023-10-02T12:05:40.982Z,5.00
2023-10-02T12:07:20.125Z,5.03
2023-10-02T12:08:52.502Z,5.15
2023-10-02T12:10:24.811Z,4.85
2023-10-02T12:11:59.572Z,4.60
2023-10-02T12:13:31.669Z,4.97
2023-10-02T12:15:04.370Z,5.10
2023-10-02T12:16:36.559Z,5.07
2023-10-02T12:18:08.785Z,5.93
2023-10-02T12:19:41.822Z,4.70
2023-10-02T12:21:14.052Z,5.38
2023-10-02T12:22:47.957Z,5.55
2023-10-02T12:24:21.923Z,5.30
2023-10-02T12:25:54.059Z,5.47
2023-10-02T12:27:26.152Z,5.13
2023-10-02T12:28:58.426Z,5.35
2023-10-02T12:30:35.592Z,5.25
2023-10-02T12:32:12.236Z,5.30
2023-10-02T12:33:46.748Z,5.93
2023-10-02T12:35:19.070Z,5.65
2023-10-02T12:36:52.501Z,6.50
2023-10-02T12:38:25.773Z,6.13
2023-10-02T12:39:58.032Z,7.65
2023-10-02T12:41:32.152Z,11.10
2023-10-02T12:43:04.865Z,6.63
2023-10-02T12:44:42.693Z,6.80
2023-10-02T12:46:16.548Z,7.78
2023-10-02T12:47:48.958Z,7.20
2023-10-02T12:49:21.993Z,6.93
2023-10-02T12:50:55.454Z,7.00
2023-10-02T12:52:27.604Z,7.18
2023-10-02T12:53:59.842Z,7.05
2023-10-02T12:55:38.077Z,7.15
2023-10-02T12:57:10.402Z,6.90
2023-10-02T12:58:43.008Z,6.47
2023-10-02T13:00:19.843Z,7.65
2023-10-02T13:01:52.218Z,7.00
2023-10-02T13:03:26.126Z,6.57
2023-10-02T13:05:00.966Z,6.40
2023-10-02T13:06:33.675Z,6.25
2023-10-02T13:08:05.992Z,6.47
2023-10-02T13:09:38.219Z,7.00
2023-10-02T13:11:14.489Z,6.53
2023-10-02T13:12:46.649Z,6.68
2023-10-02T13:14:20.348Z,6.03
2023-10-02T13:15:53.349Z,6.82
2023-10-02T13:17:25.673Z,6.82
2023-10-02T13:18:58.418Z,7.45
2023-10-02T13:20:30.594Z,7.68
2023-10-02T13:22:02.813Z,7.35
2023-10-02T13:23:35.033Z,7.72
2023-10-02T13:25:07.492Z,7.20
2023-10-02T13:26:40.113Z,7.40
2023-10-02T13:28:13.449Z,7.72
2023-10-02T13:29:52.700Z,7.43
2023-10-02T13:31:25.676Z,8.10
2023-10-02T13:33:01.765Z,7.30
2023-10-02T13:34:34.092Z,7.38
2023-10-02T13:36:09.313Z,7.78
2023-10-02T13:37:41.496Z,7.57
2023-10-02T13:39:14.989Z,9.15
2023-10-02T13:40:47.613Z,8.98
2023-10-02T13:56:28.441Z,7.50
2023-10-02T13:58:01.399Z,7.80
2023-10-02T13:59:33.681Z,8.25
2023-10-02T14:01:06.948Z,9.03
2023-10-02T14:04:14.692Z,8.38
2023-10-02T14:05:47.437Z,8.95
2023-10-02T14:07:19.802Z,8.68
2023-10-02T14:08:55.271Z,8.40
2023-10-02T14:10:28.295Z,8.77
2023-10-02T14:29:22.886Z,6.20
2023-10-02T14:30:55.162Z,6.43
2023-10-02T14:32:27.640Z,6.77
2023-10-02T14:34:01.665Z,6.70
2023-10-02T14:35:43.299Z,6.30
2023-10-02T14:37:24.369Z,6.35
2023-10-02T14:38:59.977Z,6.65
2023-10-02T14:40:34.673Z,6.63
2023-10-02T14:42:07.985Z,6.07
2023-10-02T14:43:40.094Z,6.45
2023-10-02T14:45:13.018Z,6.90
2023-10-02T14:46:45.212Z,6.18
2023-10-02T14:49:56.895Z,7.25
2023-10-02T14:51:29.011Z,6.95
2023-10-02T14:53:01.183Z,7.03
2023-10-02T14:54:33.503Z,6.25
2023-10-02T14:56:06.564Z,6.10
2023-10-02T14:57:39.021Z,5.72
2023-10-02T14:59:11.119Z,6.40
2023-10-02T15:00:43.771Z,6.18
2023-10-02T15:02:16.216Z,5.80
2023-10-02T15:03:49.809Z,5.43
2023-10-02T15:05:24.412Z,5.60
2023-10-02T15:06:56.727Z,6.13
2023-10-02T15:08:32.729Z,7.10
2023-10-02T15:10:05.505Z,6.05
2023-10-02T15:13:59.394Z,6.30
2023-10-02T15:15:31.934Z,8.15
2023-10-02T15:17:05.945Z,8.52
2023-10-02T15:18:46.146Z,7.28
2023-10-02T15:20:29.502Z,7.53
2023-10-02T15:22:01.985Z,7.30
2023-10-02T15:23:43.437Z,7.30
2023-10-02T15:25:25.387Z,6.35
2023-10-02T15:27:01.473Z,7.20
2023-10-02T15:46:45.182Z,10.90
2023-10-02T15:48:17.824Z,9.50
2023-10-02T15:49:49.971Z,14.93
2023-10-02T15:51:23.963Z,10.95
2023-10-02T15:52:59.430Z,7.63
2023-10-02T15:54:31.838Z,7.20
2023-10-02T15:56:12.867Z,6.85
2023-10-02T15:57:46.461Z,7.65
2023-10-02T15:59:18.775Z,6.45
2023-10-02T16:00:53.005Z,6.10
2023-10-02T16:02:25.304Z,6.43
2023-10-02T16:03:57.566Z,6.40
2023-10-02T16:05:31.107Z,6.30
2023-10-02T16:07:04.683Z,5.70
2023-10-02T16:08:37.104Z,6.10
2023-10-02T16:10:13.709Z,6.07
2023-10-02T16:11:46.419Z,5.95
2023-10-02T16:13:18.671Z,5.70
2023-10-02T16:14:53.489Z,6.38
2023-10-02T16:16:26.733Z,5.90
2023-10-02T16:18:00.649Z,5.60
2023-10-02T16:19:36.476Z,5.60
2023-10-02T16:21:13.295Z,6.20
2023-10-02T16:22:49.615Z,5.93
2023-10-02T16:24:21.844Z,5.90
2023-10-02T16:25:53.918Z,5.75
2023-10-02T16:27:28.210Z,5.70
2023-10-02T16:29:01.407Z,6.30
2023-10-02T16:30:37.759Z,6.22
2023-10-02T16:32:11.452Z,5.47
2023-10-02T16:33:44.292Z,5.32
2023-10-02T16:35:20.688Z,5.57
2023-10-02T16:36:53.546Z,6.10
2023-10-02T16:38:25.777Z,5.85
2023-10-02T16:40:01.225Z,6.03
2023-10-02T16:41:33.472Z,5.75
2023-10-02T16:43:06.635Z,5.57
2023-10-02T16:46:19.081Z,5.28
2023-10-02T16:47:51.251Z,5.50
2023-10-02T16:49:23.438Z,5.60
2023-10-02T16:50:55.709Z,5.57
2023-10-02T16:52:27.896Z,6.00
2023-10-02T16:54:00.061Z,6.18
2023-10-02T16:55:32.272Z,5.80
2023-10-02T16:57:05.641Z,5.47
2023-10-02T17:00:14.769Z,6.13
2023-10-02T17:01:50.133Z,6.45
2023-10-02T17:03:22.455Z,5.85
2023-10-02T17:04:59.765Z,6.43
2023-10-02T17:06:32.085Z,6.35
2023-10-02T17:08:04.568Z,5.97
2023-10-02T17:09:36.700Z,6.22
2023-10-02T17:11:13.606Z,6.07
2023-10-02T17:12:50.024Z,5.90
2023-10-02T17:14:23.056Z,5.90
2023-10-02T17:15:55.476Z,5.88
2023-10-02T17:17:27.685Z,6.28
2023-10-02T17:19:00.648Z,6.10
2023-10-02T17:20:33.040Z,6.05
2023-10-02T17:22:05.194Z,6.50
2023-10-02T17:23:37.406Z,6.05
2023-10-02T17:25:13.247Z,6.40
2023-10-02T17:26:45.497Z,6.05
2023-10-02T17:28:17.640Z,6.60
2023-10-02T17:29:49.714Z,5.88
2023-10-02T17:31:22.761Z,6.38
2023-10-02T17:32:57.090Z,6.55
2023-10-02T17:34:30.186Z,6.93
2023-10-02T17:36:02.324Z,7.03
2023-10-02T17:37:34.507Z,6.07
2023-10-02T17:39:08.746Z,6.05
2023-10-02T17:40:40.959Z,6.25
2023-10-02T17:42:15.150Z,6.00
2023-10-02T17:43:49.776Z,5.68
2023-10-02T17:45:23.530Z,5.95
2023-10-02T17:46:55.696Z,6.03
2023-10-02T17:48:27.861Z,6.00
2023-10-02T17:50:00.279Z,6.30
2023-10-02T17:51:35.016Z,5.85
2023-10-02T17:53:08.233Z,6.53
2023-10-02T17:54:43.317Z,6.05
2023-10-02T17:56:16.397Z,6.55
2023-10-02T17:57:48.912Z,7.28
2023-10-02T17:59:24.847Z,6.63
2023-10-02T18:01:02.375Z,6.93
2023-10-02T18:02:36.717Z,7.55
2023-10-02T18:04:13.135Z,6.00
2023-10-02T18:05:45.436Z,6.63
2023-10-02T18:07:17.697Z,6.53
2023-10-02T18:08:49.801Z,6.07
2023-10-02T18:10:24.939Z,6.32
2023-10-02T18:11:57.216Z,6.13
2023-10-02T18:13:29.893Z,6.00
2023-10-02T18:15:02.048Z,6.10
2023-10-02T18:16:34.230Z,6.88
2023-10-02T18:18:08.587Z,6.03
2023-10-02T18:19:43.048Z,6.43
2023-10-02T18:21:15.214Z,5.63
2023-10-02T18:22:47.400Z,6.50
2023-10-02T18:24:19.733Z,5.90
2023-10-02T18:25:54.872Z,6.25
2023-10-02T18:27:27.899Z,6.05
2023-10-02T18:29:00.415Z,6.50
2023-10-02T18:30:35.722Z,6.25
2023-10-02T18:32:08.048Z,5.80
2023-10-02T18:33:40.226Z,5.80
2023-10-02T18:35:12.418Z,5.78
2023-10-02T18:36:44.747Z,5.90
2023-10-02T18:38:16.896Z,5.97
2023-10-02T18:39:49.162Z,6.57
2023-10-02T18:41:24.779Z,6.28
2023-10-02T18:42:56.986Z,6.40
2023-10-02T18:44:29.224Z,5.90
2023-10-02T18:46:04.749Z,6.32
2023-10-02T18:47:37.289Z,6.00
2023-10-02T18:49:14.254Z,6.22
2023-10-02T18:50:46.450Z,6.45
2023-10-02T18:52:18.682Z,6.18
2023-10-02T18:53:57.203Z,6.22
2023-10-02T18:55:29.419Z,5.85
2023-10-02T18:57:01.563Z,6.72
2023-10-02T18:58:33.864Z,5.38
2023-10-02T19:00:11.964Z,6.05
2023-10-02T19:01:47.036Z,6.45
2023-10-02T19:03:19.731Z,6.47
2023-10-02T19:04:53.382Z,6.45
2023-10-02T19:06:26.654Z,6.82
2023-10-02T19:07:58.816Z,5.78
2023-10-02T19:09:31.395Z,6.57
2023-10-02T19:11:04.535Z,6.18
2023-10-02T19:12:36.800Z,6.50
2023-10-02T19:14:10.556Z,6.85
2023-10-02T19:15:42.971Z,6.50
2023-10-02T19:17:15.241Z,6.43
2023-10-02T19:18:51.539Z,5.70
2023-10-02T19:20:24.369Z,8.05
2023-10-02T19:21:56.541Z,5.93
2023-10-02T19:23:28.798Z,6.20
2023-10-02T19:25:00.995Z,5.80
2023-10-02T19:26:34.058Z,6.60
2023-10-02T19:28:06.463Z,5.60
2023-10-02T19:29:38.850Z,6.30
2023-10-02T19:31:11.097Z,5.57
2023-10-02T19:32:45.982Z,6.43
2023-10-02T19:34:18.773Z,6.43
2023-10-02T19:35:50.831Z,6.45
2023-10-02T19:37:24.018Z,6.10
2023-10-02T19:38:56.224Z,6.15
2023-10-02T19:40:28.562Z,5.78
2023-10-02T19:42:02.425Z,6.18
2023-10-02T19:43:36.096Z,6.50
2023-10-02T19:45:08.925Z,6.20
2023-10-02T19:46:41.779Z,6.15
2023-10-02T19:48:14.006Z,5.57
2023-10-02T19:49:46.258Z,6.50
2023-10-02T19:51:19.920Z,5.95
2023-10-02T19:52:52.467Z,6.13
2023-10-02T19:54:26.722Z,6.00
2023-10-02T19:56:02.083Z,6.30
2023-10-02T19:57:34.321Z,5.90
2023-10-02T19:59:06.720Z,6.18
2023-10-02T20:00:38.870Z,6.07
2023-10-02T20:02:13.340Z,5.93
2023-10-02T20:03:46.177Z,5.57
2023-10-02T20:05:18.726Z,5.85
2023-10-02T20:06:51.131Z,5.90
2023-10-02T20:08:26.211Z,5.90
2023-10-02T20:09:58.337Z,5.82
2023-10-02T20:11:30.595Z,5.82
2023-10-02T20:13:02.770Z,6.07
2023-10-02T20:14:35.468Z,6.22
2023-10-02T20:16:08.734Z,6.43
2023-10-02T20:17:41.007Z,6.70
2023-10-02T20:19:13.957Z,5.80
2023-10-02T20:20:47.526Z,6.38
2023-10-02T20:22:19.758Z,6.20
2023-10-02T20:23:53.968Z,5.38
2023-10-02T20:25:26.811Z,6.15
2023-10-02T20:26:58.937Z,5.95
2023-10-02T20:28:31.133Z,6.32
2023-10-02T20:30:04.996Z,5.85
2023-10-02T20:31:37.150Z,6.18
2023-10-02T20:33:10.291Z,5.32
2023-10-02T20:34:42.374Z,6.35
2023-10-02T20:36:14.664Z,6.13
2023-10-02T20:37:48.125Z,5.75
2023-10-02T20:39:20.350Z,5.80
2023-10-02T20:40:56.803Z,6.80
2023-10-02T20:42:28.887Z,6.38
2023-10-02T20:44:01.001Z,5.93
2023-10-02T20:45:39.490Z,5.97
2023-10-02T20:47:15.222Z,5.70
2023-10-02T20:48:48.134Z,5.80
2023-10-02T20:50:20.593Z,5.93
2023-10-02T20:51:52.865Z,6.10
2023-10-02T20:53:25.014Z,5.97
2023-10-02T20:54:57.200Z,5.88
2023-10-02T20:56:29.617Z,6.03
2023-10-02T20:58:03.157Z,5.95
2023-10-02T21:01:08.984Z,5.47
2023-10-02T21:02:45.783Z,5.68
2023-10-02T21:04:19.825Z,6.00
2023-10-02T21:05:52.130Z,6.40
2023-10-02T21:07:24.306Z,6.10
2023-10-02T21:08:58.187Z,5.63
2023-10-02T21:10:30.702Z,6.13
2023-10-02T21:12:02.853Z,6.13
2023-10-02T21:13:35.713Z,6.38
2023-10-02T21:15:14.722Z,6.18
2023-10-02T21:16:47.498Z,5.95
2023-10-02T21:18:23.085Z,5.65
2023-10-02T21:19:56.772Z,5.82
2023-10-02T21:21:28.917Z,5.47
2023-10-02T21:23:01.027Z,5.72
2023-10-02T21:24:33.672Z,5.47
2023-10-02T21:26:05.906Z,6.40
2023-10-02T21:27:39.346Z,5.90
2023-10-02T21:30:44.845Z,5.93
2023-10-02T21:32:16.951Z,5.47
2023-10-02T21:33:49.006Z,5.50
2023-10-02T21:35:23.056Z,5.65
2023-10-02T21:36:55.220Z,5.88
2023-10-02T21:38:29.571Z,5.72
2023-10-02T21:40:12.464Z,5.82
2023-10-02T21:41:46.222Z,6.03
2023-10-02T21:43:18.415Z,5.68
2023-10-02T21:44:50.641Z,6.03
2023-10-02T21:46:22.867Z,5.95
2023-10-02T21:47:55.232Z,5.50
2023-10-02T21:49:27.431Z,5.30
2023-10-02T21:50:59.841Z,5.93
2023-10-02T21:52:31.949Z,5.93
2023-10-02T21:54:05.371Z,5.82
2023-10-02T21:57:09.837Z,7.32
2023-10-02T21:58:41.873Z,6.90
2023-10-02T22:00:49.780Z,5.70
2023-10-02T22:02:22.812Z,6.32
2023-10-02T22:03:55.459Z,5.78
2023-10-02T22:05:28.885Z,6.32
2023-10-02T22:07:06.314Z,5.70
2023-10-02T22:08:39.422Z,6.05
2023-10-02T22:10:11.565Z,5.78
2023-10-02T22:11:46.271Z,5.63
2023-10-02T22:13:18.481Z,5.70
2023-10-02T22:16:26.631Z,5.57
2023-10-02T22:18:02.973Z,6.07
2023-10-02T22:19:38.071Z,5.50
2023-10-02T22:21:13.405Z,6.35
2023-10-02T22:22:46.843Z,6.10
2023-10-02T22:25:51.136Z,5.72
2023-10-02T22:27:23.230Z,6.22
2023-10-02T22:35:43.030Z,6.22
2023-10-02T22:37:15.447Z,5.80
2023-10-02T22:38:47.805Z,6.05
2023-10-02T22:40:22.948Z,5.40
2023-10-02T22:41:56.404Z,6.10
2023-10-02T22:46:35.910Z,6.05
2023-10-02T22:48:10.983Z,5.67
2023-10-02T22:51:19.762Z,5.63
2023-10-02T22:52:53.754Z,5.80
2023-10-02T22:54:32.581Z,6.25
2023-10-02T22:56:05.057Z,5.97
2023-10-02T22:57:38.392Z,5.87
2023-10-02T22:59:10.537Z,5.70
2023-10-02T23:00:43.901Z,5.57
2023-10-02T23:02:16.085Z,5.70
2023-10-02T23:03:48.386Z,5.63
2023-10-02T23:05:21.387Z,5.43
2023-10-02T23:06:54.591Z,5.90
2023-10-02T23:08:29.347Z,5.50
2023-10-02T23:10:01.433Z,5.82
2023-10-02T23:11:33.578Z,6.03
2023-10-02T23:13:08.685Z,5.55
2023-10-02T23:14:41.294Z,6.20
2023-10-02T23:16:13.717Z,5.68
2023-10-02T23:17:45.876Z,6.03
2023-10-02T23:19:21.453Z,5.93
2023-10-02T23:20:54.604Z,6.40
2023-10-02T23:22:28.610Z,5.95
2023-10-02T23:24:06.182Z,5.97
2023-10-02T23:25:38.628Z,5.97
2023-10-02T23:27:10.872Z,6.05
2023-10-02T23:28:43.063Z,5.97
2023-10-02T23:30:24.427Z,5.97
2023-10-02T23:31:56.604Z,6.75
2023-10-02T23:33:29.378Z,5.95
2023-10-02T23:35:02.981Z,5.50
2023-10-02T23:36:35.557Z,6.00
2023-10-02T23:38:09.620Z,6.22
2023-10-02T23:39:41.654Z,5.95
2023-10-02T23:41:16.399Z,5.88
2023-10-02T23:42:54.454Z,6.35
2023-10-02T23:44:27.094Z,6.13
2023-10-02T23:45:59.440Z,6.05
2023-10-02T23:47:31.645Z,6.22
2023-10-02T23:49:04.010Z,6.13
2023-10-02T23:50:44.656Z,6.53
2023-10-02T23:52:16.915Z,6.40
2023-10-02T23:53:49.017Z,6.30
2023-10-02T23:55:29.648Z,6.55
2023-10-02T23:57:01.818Z,5.93
2023-10-02T23:58:34.088Z,5.35
